createdAt,value
2018-05-29T00:00:22.263Z,52.10
2018-05-29T00:02:50.615Z,51.75
2018-05-29T00:05:20.423Z,53.17
2018-05-29T00:07:49.993Z,53.42
2018-05-29T00:10:20.004Z,53.61
2018-05-29T00:12:48.371Z,51.09
2018-05-29T00:15:16.874Z,52.99
2018-05-29T00:17:45.299Z,54.13
2018-05-29T00:20:13.642Z,54.08
2018-05-29T00:22:42.355Z,54.25
2018-05-29T00:25:10.631Z,52.70
2018-05-29T00:27:39.060Z,52.28
2018-05-29T00:30:08.672Z,52.46
2018-05-29T00:32:38.439Z,53.60
2018-05-29T00:35:06.907Z,53.08
2018-05-29T00:37:35.272Z,53.99
2018-05-29T00:40:03.642Z,54.59
2018-05-29T00:42:32.017Z,54.76
2018-05-29T00:45:03.098Z,54.66
2018-05-29T00:47:31.533Z,54.15
2018-05-29T00:50:01.327Z,54.98
2018-05-29T00:52:30.964Z,54.75
2018-05-29T00:55:05.344Z,54.74
2018-05-29T00:57:33.995Z,54.88
2018-05-29T01:00:03.855Z,55.30
2018-05-29T01:02:33.588Z,55.07
2018-05-29T01:05:02.084Z,56.08
2018-05-29T01:07:31.699Z,55.23
2018-05-29T01:10:00.080Z,56.00
2018-05-29T01:12:28.455Z,54.97
2018-05-29T01:14:56.803Z,56.15
2018-05-29T01:17:25.143Z,56.37
2018-05-29T01:19:53.671Z,56.62
2018-05-29T01:22:22.050Z,56.86
2018-05-29T01:24:52.195Z,57.08
2018-05-29T01:27:20.544Z,57.30
2018-05-29T01:29:48.894Z,57.33
2018-05-29T01:32:17.343Z,56.72
2018-05-29T01:34:45.727Z,57.52
2018-05-29T01:37:14.335Z,57.39
2018-05-29T01:39:42.678Z,57.45
2018-05-29T01:42:11.039Z,57.60
2018-05-29T01:44:39.406Z,57.46
2018-05-29T01:47:07.748Z,57.78
2018-05-29T01:49:36.140Z,57.20
2018-05-29T01:52:04.451Z,56.69
2018-05-29T01:54:32.810Z,57.56
2018-05-29T01:57:01.166Z,58.47
2018-05-29T01:59:30.887Z,58.90
2018-05-29T02:02:00.576Z,58.69
2018-05-29T02:04:28.967Z,58.34
2018-05-29T02:06:58.662Z,58.86
2018-05-29T02:09:27.011Z,59.11
2018-05-29T02:11:55.467Z,59.26
2018-05-29T02:14:23.843Z,60.36
2018-05-29T02:16:52.152Z,60.83
2018-05-29T02:19:22.399Z,60.83
2018-05-29T02:21:50.726Z,60.68
2018-05-29T02:24:21.766Z,59.21
2018-05-29T02:26:50.219Z,59.57
2018-05-29T02:29:19.959Z,59.81
2018-05-29T02:31:49.327Z,60.55
2018-05-29T02:34:17.689Z,61.06
2018-05-29T02:36:46.032Z,60.86
2018-05-29T02:39:14.407Z,61.04
2018-05-29T02:41:44.072Z,60.83
2018-05-29T02:44:12.416Z,61.07
2018-05-29T02:46:40.802Z,60.29
2018-05-29T02:49:10.567Z,60.42
2018-05-29T02:51:38.980Z,60.52
2018-05-29T02:54:07.327Z,60.03
2018-05-29T02:56:35.675Z,60.45
2018-05-29T02:59:05.384Z,61.78
2018-05-29T03:01:33.751Z,62.47
2018-05-29T03:04:03.744Z,63.08
2018-05-29T03:06:33.443Z,63.27
2018-05-29T03:09:01.800Z,63.45
2018-05-29T03:11:30.192Z,63.32
2018-05-29T03:13:58.555Z,62.43
2018-05-29T03:16:26.948Z,62.49
2018-05-29T03:18:55.321Z,62.63
2018-05-29T03:21:23.659Z,63.14
2018-05-29T03:23:52.027Z,63.20
2018-05-29T03:26:20.367Z,62.84
2018-05-29T03:28:48.774Z,63.13
2018-05-29T03:31:18.435Z,63.03
2018-05-29T03:33:46.809Z,63.32
2018-05-29T03:36:15.161Z,63.79
2018-05-29T03:38:43.571Z,64.10
2018-05-29T03:41:11.994Z,64.06
2018-05-29T03:43:41.904Z,64.07
2018-05-29T03:46:10.283Z,64.66
2018-05-29T03:48:38.627Z,64.85
2018-05-29T03:51:06.949Z,64.83
2018-05-29T03:53:35.314Z,64.38
2018-05-29T03:56:03.697Z,62.79
2018-05-29T03:58:32.102Z,63.22
2018-05-29T04:01:00.456Z,64.17
2018-05-29T04:03:28.825Z,64.29
2018-05-29T04:05:58.858Z,63.45
2018-05-29T04:08:27.229Z,62.36
2018-05-29T04:10:55.643Z,63.07
2018-05-29T04:13:24.845Z,63.22
2018-05-29T04:15:54.726Z,63.86
2018-05-29T04:18:23.067Z,64.12
2018-05-29T04:20:51.464Z,64.91
2018-05-29T04:23:22.462Z,64.76
2018-05-29T04:25:51.172Z,64.37
2018-05-29T04:28:19.478Z,64.02
2018-05-29T04:30:47.822Z,64.10
2018-05-29T04:33:16.255Z,64.62
2018-05-29T04:35:44.550Z,65.47
2018-05-29T04:38:12.938Z,68.02
2018-05-29T04:40:41.313Z,68.77
2018-05-29T04:43:09.668Z,69.45
2018-05-29T04:45:37.983Z,70.62
2018-05-29T04:48:06.287Z,71.07
2018-05-29T04:50:34.637Z,70.90
2018-05-29T04:53:03.004Z,69.54
2018-05-29T04:55:31.307Z,69.64
2018-05-29T04:58:00.679Z,71.42
2018-05-29T05:00:29.023Z,71.31
2018-05-29T05:02:57.384Z,70.66
2018-05-29T05:05:26.142Z,71.30
2018-05-29T05:07:56.002Z,71.14
2018-05-29T05:10:24.834Z,70.75
2018-05-29T05:12:53.227Z,70.49
2018-05-29T05:15:22.808Z,69.82
2018-05-29T05:17:51.336Z,70.09
2018-05-29T05:20:19.744Z,71.21
2018-05-29T05:22:48.920Z,70.91
2018-05-29T05:25:17.144Z,71.08
2018-05-29T05:27:45.247Z,70.46
2018-05-29T05:30:13.333Z,70.24
2018-05-29T05:32:41.954Z,70.27
2018-05-29T05:35:10.059Z,70.21
2018-05-29T05:37:38.246Z,69.28
2018-05-29T05:40:06.300Z,69.02
2018-05-29T05:42:34.335Z,69.36
2018-05-29T05:45:02.512Z,69.79
2018-05-29T05:47:29.761Z,69.68
2018-05-29T05:49:58.118Z,68.97
2018-05-29T05:52:27.495Z,68.53
2018-05-29T05:54:55.842Z,67.61
2018-05-29T05:57:25.440Z,66.99
2018-05-29T05:59:53.800Z,66.32
2018-05-29T06:02:22.134Z,66.35
2018-05-29T06:04:50.514Z,65.99
2018-05-29T06:07:19.975Z,66.24
2018-05-29T06:09:48.382Z,66.01
2018-05-29T06:12:16.704Z,66.47
2018-05-29T06:14:45.067Z,66.07
2018-05-29T06:17:13.427Z,65.91
2018-05-29T06:19:41.807Z,65.78
2018-05-29T06:22:10.165Z,65.60
2018-05-29T06:24:38.413Z,65.19
2018-05-29T06:27:06.749Z,65.59
2018-05-29T06:29:35.754Z,65.58
2018-05-29T06:32:04.166Z,65.81
2018-05-29T06:34:32.691Z,66.09
2018-05-29T06:37:01.031Z,64.78
2018-05-29T06:39:29.378Z,65.21
2018-05-29T06:41:57.507Z,64.98
2018-05-29T06:44:25.880Z,64.68
2018-05-29T06:46:53.994Z,64.79
2018-05-29T06:49:22.147Z,64.50
2018-05-29T06:51:50.260Z,64.54
2018-05-29T06:54:18.409Z,64.52
2018-05-29T06:56:45.667Z,65.29
2018-05-29T06:59:13.965Z,65.57
2018-05-29T07:01:42.347Z,66.19
2018-05-29T07:04:10.707Z,65.55
2018-05-29T07:06:39.094Z,65.42
2018-05-29T07:09:07.516Z,64.95
2018-05-29T07:11:36.576Z,64.49
2018-05-29T07:14:05.004Z,64.37
2018-05-29T07:16:33.347Z,64.51
2018-05-29T07:19:01.800Z,63.93
2018-05-29T07:21:30.202Z,64.31
2018-05-29T07:23:58.568Z,63.99
2018-05-29T07:26:26.944Z,63.86
2018-05-29T07:28:56.317Z,64.15
2018-05-29T07:31:24.673Z,63.77
2018-05-29T07:33:53.083Z,63.74
2018-05-29T07:36:21.443Z,63.67
2018-05-29T07:38:50.897Z,63.95
2018-05-29T07:41:19.255Z,64.14
2018-05-29T07:43:47.637Z,64.01
2018-05-29T07:46:16.040Z,63.78
2018-05-29T07:48:45.484Z,63.75
2018-05-29T07:51:13.806Z,63.88
2018-05-29T07:53:43.194Z,63.35
2018-05-29T07:56:11.578Z,63.28
2018-05-29T07:58:41.549Z,62.74
2018-05-29T08:01:09.916Z,62.14
2018-05-29T08:03:38.291Z,61.70
2018-05-29T08:06:06.702Z,61.27
2018-05-29T08:08:35.389Z,61.12
2018-05-29T08:11:03.827Z,60.74
2018-05-29T08:13:32.774Z,60.14
2018-05-29T08:16:01.553Z,59.85
2018-05-29T08:18:30.057Z,59.88
2018-05-29T08:20:59.127Z,59.31
2018-05-29T08:23:27.527Z,59.07
2018-05-29T08:25:55.943Z,58.92
2018-05-29T08:28:24.263Z,58.53
2018-05-29T08:30:52.540Z,59.54
2018-05-29T08:33:20.887Z,59.44
2018-05-29T08:35:49.261Z,58.76
2018-05-29T08:38:18.631Z,58.51
2018-05-29T08:40:46.961Z,57.99
2018-05-29T08:43:15.310Z,57.45
2018-05-29T08:45:43.599Z,57.17
2018-05-29T08:48:11.970Z,56.20
2018-05-29T08:50:40.375Z,56.27
2018-05-29T08:53:08.701Z,55.14
2018-05-29T08:55:37.083Z,54.66
2018-05-29T08:58:05.447Z,55.17
2018-05-29T09:00:34.830Z,54.63
2018-05-29T09:03:03.215Z,54.53
2018-05-29T09:05:32.581Z,54.07
2018-05-29T09:08:01.970Z,54.99
2018-05-29T09:10:30.421Z,54.72
2018-05-29T09:12:58.859Z,54.38
2018-05-29T09:15:27.230Z,54.66
2018-05-29T09:17:55.604Z,54.36
2018-05-29T09:20:23.987Z,53.69
2018-05-29T09:22:52.376Z,53.92
2018-05-29T09:25:20.682Z,54.19
2018-05-29T09:27:49.794Z,54.15
2018-05-29T09:30:20.082Z,54.45
2018-05-29T09:32:48.467Z,53.85
2018-05-29T09:35:16.835Z,53.35
2018-05-29T09:37:45.345Z,53.31
2018-05-29T09:40:13.722Z,52.62
2018-05-29T09:42:42.031Z,52.37
2018-05-29T09:45:10.414Z,52.95
2018-05-29T09:47:38.735Z,52.41
2018-05-29T09:50:07.075Z,52.54
2018-05-29T09:52:36.448Z,52.65
2018-05-29T09:55:04.822Z,52.21
2018-05-29T09:57:33.208Z,52.39
2018-05-29T10:00:01.591Z,52.57
2018-05-29T10:02:29.982Z,52.96
2018-05-29T10:04:58.315Z,51.60
2018-05-29T10:07:26.662Z,51.64
2018-05-29T10:09:54.996Z,50.72
2018-05-29T10:12:24.373Z,49.89
2018-05-29T10:14:52.620Z,49.18
2018-05-29T10:17:20.988Z,47.36
2018-05-29T10:19:49.329Z,46.74
2018-05-29T10:22:17.684Z,47.15
2018-05-29T10:24:47.083Z,44.86
2018-05-29T10:27:15.427Z,43.92
2018-05-29T10:29:43.794Z,44.26
2018-05-29T10:32:12.194Z,44.64
2018-05-29T10:34:41.554Z,45.17
2018-05-29T10:37:09.931Z,45.45
2018-05-29T10:39:38.193Z,45.94
2018-05-29T10:42:06.517Z,45.90
2018-05-29T10:44:34.888Z,46.47
2018-05-29T10:47:03.248Z,46.42
2018-05-29T10:49:31.598Z,46.49
2018-05-29T10:52:00.779Z,45.28
2018-05-29T10:54:29.142Z,43.60
2018-05-29T10:56:57.507Z,41.74
2018-05-29T10:59:25.895Z,41.02
2018-05-29T11:01:54.304Z,40.32
2018-05-29T11:04:22.654Z,40.13
2018-05-29T11:06:51.779Z,40.96
2018-05-29T11:09:21.836Z,41.71
2018-05-29T11:11:50.184Z,41.43
2018-05-29T11:14:19.760Z,41.11
2018-05-29T11:16:49.115Z,41.35
2018-05-29T11:19:17.548Z,41.53
2018-05-29T11:21:46.920Z,41.74
2018-05-29T11:24:15.306Z,40.65
2018-05-29T11:26:43.653Z,40.86
2018-05-29T11:29:12.251Z,39.62
2018-05-29T11:31:40.606Z,40.64
2018-05-29T11:34:08.973Z,39.44
2018-05-29T11:36:37.398Z,40.76
2018-05-29T11:39:06.141Z,40.77
2018-05-29T11:41:34.494Z,40.98
2018-05-29T11:44:02.844Z,41.01
2018-05-29T11:46:31.155Z,41.29
2018-05-29T11:48:59.535Z,41.40
2018-05-29T11:51:28.030Z,39.98
2018-05-29T11:53:57.395Z,39.12
2018-05-29T11:56:25.730Z,39.67
2018-05-29T11:58:54.041Z,40.24
2018-05-29T12:01:22.429Z,39.66
2018-05-29T12:03:50.862Z,39.48
2018-05-29T12:06:19.173Z,40.03
2018-05-29T12:08:48.163Z,39.51
2018-05-29T12:11:16.579Z,39.28
2018-05-29T12:13:44.931Z,39.58
2018-05-29T12:16:13.263Z,39.49
2018-05-29T12:18:42.672Z,39.93
2018-05-29T12:21:11.025Z,39.51
2018-05-29T12:23:39.659Z,39.98
2018-05-29T12:26:09.212Z,39.98
2018-05-29T12:28:38.867Z,39.44
2018-05-29T12:31:08.368Z,38.89
2018-05-29T12:33:36.742Z,38.42
2018-05-29T12:36:05.031Z,39.59
2018-05-29T12:38:33.408Z,40.11
2018-05-29T12:41:01.555Z,38.48
2018-05-29T12:43:29.703Z,38.82
2018-05-29T12:45:57.854Z,38.93
2018-05-29T12:48:26.104Z,39.51
2018-05-29T12:50:54.165Z,40.73
2018-05-29T12:53:22.272Z,39.89
2018-05-29T12:55:50.268Z,39.30
2018-05-29T12:58:18.311Z,38.88
2018-05-29T13:00:46.436Z,38.80
2018-05-29T13:03:14.515Z,39.67
2018-05-29T13:05:42.519Z,41.38
2018-05-29T13:08:10.622Z,41.87
2018-05-29T13:10:38.683Z,42.34
2018-05-29T13:13:06.702Z,42.21
2018-05-29T13:15:35.051Z,42.48
2018-05-29T13:18:04.375Z,44.20
2018-05-29T13:20:33.708Z,45.05
2018-05-29T13:23:02.074Z,45.73
2018-05-29T13:25:30.374Z,45.90
2018-05-29T13:27:58.764Z,46.38
2018-05-29T13:30:27.059Z,47.52
2018-05-29T13:32:55.343Z,47.32
2018-05-29T13:35:23.710Z,46.76
2018-05-29T13:37:52.012Z,46.15
2018-05-29T13:40:20.367Z,46.29
2018-05-29T13:42:48.769Z,46.24
2018-05-29T13:45:17.078Z,45.89
2018-05-29T13:47:45.452Z,47.11
2018-05-29T13:50:13.914Z,46.32
2018-05-29T13:52:42.270Z,46.73
2018-05-29T13:55:11.086Z,46.62
2018-05-29T13:57:39.483Z,46.85
2018-05-29T14:00:08.041Z,47.36
2018-05-29T14:02:39.909Z,45.54
2018-05-29T14:05:08.531Z,45.12
2018-05-29T14:07:36.836Z,46.20
2018-05-29T14:10:06.208Z,46.32
2018-05-29T14:12:35.565Z,46.53
2018-05-29T14:15:03.879Z,47.14
2018-05-29T14:17:33.123Z,46.78
2018-05-29T14:20:01.447Z,46.24
2018-05-29T14:22:29.751Z,45.72
2018-05-29T14:24:59.102Z,45.13
2018-05-29T14:27:27.687Z,44.21
2018-05-29T14:29:56.013Z,44.19
2018-05-29T14:32:25.580Z,44.79
2018-05-29T14:34:53.932Z,43.60
2018-05-29T14:37:22.240Z,44.16
2018-05-29T14:39:50.558Z,44.37
2018-05-29T14:42:18.882Z,44.51
2018-05-29T14:44:47.194Z,44.67
2018-05-29T14:47:15.490Z,44.10
2018-05-29T14:49:43.880Z,44.72
2018-05-29T14:52:12.242Z,44.91
2018-05-29T14:54:40.490Z,44.41
2018-05-29T14:57:08.976Z,44.60
2018-05-29T14:59:37.338Z,44.19
2018-05-29T15:02:05.681Z,44.13
2018-05-29T15:04:34.051Z,43.53
2018-05-29T15:07:02.382Z,44.09
2018-05-29T15:09:30.689Z,44.42
2018-05-29T15:11:59.060Z,44.73
2018-05-29T15:14:27.362Z,44.61
2018-05-29T15:16:55.716Z,44.05
2018-05-29T15:19:24.034Z,43.42
2018-05-29T15:21:52.347Z,43.36
2018-05-29T15:24:20.631Z,43.13
2018-05-29T15:26:51.155Z,43.98
2018-05-29T15:29:19.582Z,44.18
2018-05-29T15:31:47.850Z,44.25
2018-05-29T15:34:17.154Z,44.37
2018-05-29T15:36:45.481Z,44.98
2018-05-29T15:39:13.820Z,44.68
2018-05-29T15:41:42.929Z,44.82
2018-05-29T15:44:11.429Z,44.51
2018-05-29T15:46:39.854Z,43.71
2018-05-29T15:49:08.183Z,44.08
2018-05-29T15:51:36.899Z,43.36
2018-05-29T15:54:05.135Z,43.32
2018-05-29T15:56:33.435Z,43.35
2018-05-29T15:59:03.936Z,43.92
2018-05-29T16:01:32.251Z,43.84
2018-05-29T16:04:00.500Z,44.45
2018-05-29T16:06:28.983Z,44.31
2018-05-29T16:08:57.295Z,44.32
2018-05-29T16:11:25.614Z,44.14
2018-05-29T16:13:53.949Z,44.21
2018-05-29T16:16:23.286Z,44.51
2018-05-29T16:18:51.620Z,44.42
2018-05-29T16:21:19.924Z,44.82
2018-05-29T16:23:48.294Z,44.95
2018-05-29T16:26:16.910Z,44.27
2018-05-29T16:28:45.264Z,45.50
2018-05-29T16:31:13.624Z,45.30
2018-05-29T16:33:41.996Z,45.64
2018-05-29T16:36:11.315Z,45.66
2018-05-29T16:38:39.335Z,46.14
2018-05-29T16:41:07.375Z,46.21
2018-05-29T16:43:35.389Z,46.38
2018-05-29T16:46:04.834Z,46.43
2018-05-29T16:48:32.870Z,47.19
2018-05-29T16:51:00.973Z,47.52
2018-05-29T16:53:29.007Z,47.41
2018-05-29T16:55:57.056Z,47.16
2018-05-29T16:58:26.214Z,47.06
2018-05-29T17:00:54.283Z,47.79
2018-05-29T17:03:22.320Z,48.44
2018-05-29T17:05:50.379Z,48.22
2018-05-29T17:08:18.410Z,48.41
2018-05-29T17:10:46.454Z,48.34
2018-05-29T17:13:14.470Z,48.33
2018-05-29T17:15:42.522Z,48.87
2018-05-29T17:18:10.547Z,49.30
2018-05-29T17:20:38.976Z,49.32
2018-05-29T17:23:07.055Z,49.16
2018-05-29T17:25:35.099Z,48.87
2018-05-29T17:28:03.331Z,49.39
2018-05-29T17:30:31.342Z,49.68
2018-05-29T17:32:59.371Z,49.29
2018-05-29T17:35:27.975Z,48.99
2018-05-29T17:37:56.037Z,48.32
2018-05-29T17:40:24.075Z,48.67
2018-05-29T17:42:52.223Z,48.86
2018-05-29T17:45:20.237Z,48.94
2018-05-29T17:47:48.346Z,48.63
2018-05-29T17:50:18.130Z,48.67
2018-05-29T17:52:47.865Z,48.87
2018-05-29T17:55:16.106Z,48.68
2018-05-29T17:57:44.184Z,48.71
2018-05-29T18:00:12.210Z,48.75
2018-05-29T18:02:40.375Z,49.33
2018-05-29T18:05:08.987Z,49.43
2018-05-29T18:07:37.212Z,49.68
2018-05-29T18:10:05.390Z,49.78
2018-05-29T18:12:33.643Z,49.58
2018-05-29T18:15:01.738Z,49.65
2018-05-29T18:17:29.952Z,49.83
2018-05-29T18:19:58.211Z,50.32
2018-05-29T18:22:26.829Z,50.29
2018-05-29T18:24:55.073Z,50.08
2018-05-29T18:27:23.543Z,50.27
2018-05-29T18:29:50.833Z,50.33
2018-05-29T18:32:19.514Z,50.70
2018-05-29T18:34:47.668Z,50.31
2018-05-29T18:37:16.306Z,50.82
2018-05-29T18:39:44.914Z,50.97
2018-05-29T18:42:13.155Z,51.05
2018-05-29T18:44:41.451Z,51.06
2018-05-29T18:47:10.012Z,51.05
2018-05-29T18:49:38.496Z,50.75
2018-05-29T18:52:07.004Z,51.05
2018-05-29T18:54:35.335Z,51.02
2018-05-29T18:57:03.634Z,51.29
2018-05-29T18:59:32.161Z,51.36
2018-05-29T19:02:00.491Z,51.94
2018-05-29T19:04:29.061Z,51.75
2018-05-29T19:06:57.675Z,51.83
2018-05-29T19:09:26.061Z,52.15
2018-05-29T19:11:54.425Z,52.22
2018-05-29T19:14:22.792Z,52.31
2018-05-29T19:16:51.264Z,52.21
2018-05-29T19:19:19.531Z,52.17
2018-05-29T19:21:47.761Z,52.39
2018-05-29T19:24:16.183Z,52.34
2018-05-29T19:26:44.611Z,52.13
2018-05-29T19:29:13.386Z,52.30
2018-05-29T19:31:41.919Z,52.42
2018-05-29T19:34:10.221Z,52.43
2018-05-29T19:36:38.644Z,52.16
2018-05-29T19:39:07.498Z,52.40
2018-05-29T19:41:36.100Z,52.46
2018-05-29T19:44:04.566Z,52.48
2018-05-29T19:46:33.018Z,52.65
2018-05-29T19:49:01.355Z,52.60
2018-05-29T19:51:30.088Z,52.45
2018-05-29T19:53:58.468Z,52.89
2018-05-29T19:56:26.765Z,53.07
2018-05-29T19:58:55.947Z,53.16
2018-05-29T20:01:24.249Z,53.37
2018-05-29T20:03:52.454Z,57.40
2018-05-29T20:06:20.843Z,59.77
2018-05-29T20:08:49.120Z,62.47
2018-05-29T20:11:17.517Z,65.38
2018-05-29T20:13:45.913Z,67.35
2018-05-29T20:16:14.299Z,68.60
2018-05-29T20:18:42.775Z,69.14
2018-05-29T20:21:11.064Z,69.43
2018-05-29T20:23:39.383Z,69.22
2018-05-29T20:26:07.932Z,70.68
2018-05-29T20:28:36.285Z,71.25
2018-05-29T20:31:04.731Z,71.07
2018-05-29T20:33:33.175Z,71.08
2018-05-29T20:36:01.481Z,70.74
2018-05-29T20:38:29.856Z,70.62
2018-05-29T20:40:58.088Z,70.86
2018-05-29T20:43:26.421Z,70.87
2018-05-29T20:45:54.643Z,71.12
2018-05-29T20:48:22.904Z,71.32
2018-05-29T20:50:51.021Z,71.49
2018-05-29T20:53:19.637Z,71.57
2018-05-29T20:55:48.055Z,71.14
2018-05-29T20:58:16.390Z,70.80
2018-05-29T21:00:44.600Z,70.89
2018-05-29T21:03:14.068Z,70.90
2018-05-29T21:05:42.174Z,70.89
2018-05-29T21:08:10.571Z,71.04
2018-05-29T21:10:38.862Z,70.93
2018-05-29T21:13:07.123Z,70.28
2018-05-29T21:15:35.422Z,70.93
2018-05-29T21:18:03.513Z,70.63
2018-05-29T21:20:31.771Z,70.38
2018-05-29T21:23:00.098Z,70.20
2018-05-29T21:25:28.389Z,70.71
2018-05-29T21:27:56.835Z,71.37
2018-05-29T21:30:25.099Z,71.91
2018-05-29T21:32:53.410Z,72.61
2018-05-29T21:35:21.758Z,72.61
2018-05-29T21:37:50.248Z,71.27
2018-05-29T21:40:18.560Z,68.81
2018-05-29T21:42:46.875Z,68.84
2018-05-29T21:45:15.195Z,69.39
2018-05-29T21:47:43.476Z,70.10
2018-05-29T21:50:11.639Z,69.55
2018-05-29T21:52:40.083Z,68.77
2018-05-29T21:55:08.323Z,68.95
2018-05-29T21:57:36.727Z,68.67
2018-05-29T22:00:05.181Z,68.69
2018-05-29T22:02:33.410Z,68.45
2018-05-29T22:05:01.704Z,68.85
2018-05-29T22:07:29.983Z,68.90
2018-05-29T22:09:58.235Z,68.65
2018-05-29T22:12:26.511Z,68.36
2018-05-29T22:14:54.871Z,68.51
2018-05-29T22:17:23.135Z,69.48
2018-05-29T22:19:51.488Z,69.75
2018-05-29T22:22:19.836Z,69.38
2018-05-29T22:24:48.054Z,69.53
2018-05-29T22:27:16.339Z,69.39
2018-05-29T22:29:44.928Z,68.62
2018-05-29T22:32:13.146Z,68.27
2018-05-29T22:34:41.150Z,68.99
2018-05-29T22:37:09.851Z,68.65
2018-05-29T22:39:38.735Z,69.08
2018-05-29T22:42:07.342Z,69.49
2018-05-29T22:44:35.835Z,69.97
2018-05-29T22:47:04.120Z,70.24
2018-05-29T22:49:32.381Z,71.12
2018-05-29T22:52:00.605Z,71.52
2018-05-29T22:54:28.851Z,71.48
2018-05-29T22:56:57.176Z,71.04
2018-05-29T22:59:25.480Z,71.15
2018-05-29T23:01:53.833Z,70.71
2018-05-29T23:04:22.078Z,69.63
2018-05-29T23:06:50.633Z,68.78
2018-05-29T23:09:18.951Z,68.88
2018-05-29T23:11:47.352Z,68.42
2018-05-29T23:14:15.723Z,68.69
2018-05-29T23:16:44.295Z,68.01
2018-05-29T23:19:13.338Z,67.75
2018-05-29T23:21:41.747Z,67.39
2018-05-29T23:24:10.049Z,66.93
2018-05-29T23:26:38.451Z,66.88
2018-05-29T23:29:07.087Z,66.34
2018-05-29T23:31:35.714Z,66.63
2018-05-29T23:34:04.196Z,66.82
2018-05-29T23:36:32.516Z,66.95
2018-05-29T23:39:00.849Z,66.91
2018-05-29T23:41:29.003Z,66.86
2018-05-29T23:43:57.080Z,67.22
2018-05-29T23:46:25.507Z,67.52
2018-05-29T23:48:54.046Z,67.27
2018-05-29T23:51:22.595Z,66.80
2018-05-29T23:53:51.283Z,66.67
2018-05-29T23:56:19.808Z,67.28
2018-05-29T23:58:48.283Z,67.92
